sensor_id;sensor_type;location;lat;lon;timestamp;P1;durP1;ratioP1;P2;durP2;ratioP2
7080;SDS011;3582;51.506;11.948;2023-10-08T00:02:08;8.50;;;7.30;;
7080;SDS011;3582;51.506;11.948;2023-10-08T00:04:34;7.93;;;6.70;;
7080;SDS011;3582;51.506;11.948;2023-10-08T00:07:04;11.77;;;7.87;;
7080;SDS011;3582;51.506;11.948;2023-10-08T00:09:33;8.13;;;7.13;;
7080;SDS011;3582;51.506;11.948;2023-10-08T00:12:02;11.07;;;6.43;;
7080;SDS011;3582;51.506;11.948;2023-10-08T00:14:29;10.20;;;7.33;;
7080;SDS011;3582;51.506;11.948;2023-10-08T00:16:55;9.03;;;8.13;;
7080;SDS011;3582;51.506;11.948;2023-10-08T00:19:20;9.73;;;7.70;;
7080;SDS011;3582;51.506;11.948;2023-10-08T00:21:46;9.37;;;8.00;;
7080;SDS011;3582;51.506;11.948;2023-10-08T00:24:13;7.47;;;6.77;;
7080;SDS011;3582;51.506;11.948;2023-10-08T00:26:40;12.33;;;7.53;;
7080;SDS011;3582;51.506;11.948;2023-10-08T00:29:07;10.33;;;7.60;;
7080;SDS011;3582;51.506;11.948;2023-10-08T00:31:46;9.70;;;7.67;;
7080;SDS011;3582;51.506;11.948;2023-10-08T00:34:14;8.63;;;6.97;;
7080;SDS011;3582;51.506;11.948;2023-10-08T00:36:42;11.10;;;8.50;;
7080;SDS011;3582;51.506;11.948;2023-10-08T00:39:08;8.70;;;7.60;;
7080;SDS011;3582;51.506;11.948;2023-10-08T00:41:57;9.93;;;7.83;;
7080;SDS011;3582;51.506;11.948;2023-10-08T00:44:23;16.90;;;7.27;;
7080;SDS011;3582;51.506;11.948;2023-10-08T00:46:54;8.10;;;7.30;;
7080;SDS011;3582;51.506;11.948;2023-10-08T00:49:25;11.83;;;8.67;;
7080;SDS011;3582;51.506;11.948;2023-10-08T00:52:02;10.70;;;8.27;;
7080;SDS011;3582;51.506;11.948;2023-10-08T00:54:48;6.40;;;5.83;;
7080;SDS011;3582;51.506;11.948;2023-10-08T00:57:29;6.27;;;5.67;;
7080;SDS011;3582;51.506;11.948;2023-10-08T00:59:59;4.70;;;4.10;;
7080;SDS011;3582;51.506;11.948;2023-10-08T01:02:26;4.63;;;4.20;;
7080;SDS011;3582;51.506;11.948;2023-10-08T01:04:54;3.10;;;2.90;;
7080;SDS011;3582;51.506;11.948;2023-10-08T01:07:21;2.77;;;2.50;;
7080;SDS011;3582;51.506;11.948;2023-10-08T01:09:48;2.00;;;1.90;;
7080;SDS011;3582;51.506;11.948;2023-10-08T01:12:17;2.77;;;2.40;;
7080;SDS011;3582;51.506;11.948;2023-10-08T01:14:49;2.17;;;2.00;;
7080;SDS011;3582;51.506;11.948;2023-10-08T01:17:18;0.90;;;0.90;;
7080;SDS011;3582;51.506;11.948;2023-10-08T01:19:48;1.10;;;0.70;;
7080;SDS011;3582;51.506;11.948;2023-10-08T01:22:44;0.67;;;0.60;;
7080;SDS011;3582;51.506;11.948;2023-10-08T01:25:10;0.50;;;0.50;;
7080;SDS011;3582;51.506;11.948;2023-10-08T01:27:36;0.50;;;0.50;;
7080;SDS011;3582;51.506;11.948;2023-10-08T01:30:02;0.40;;;0.40;;
7080;SDS011;3582;51.506;11.948;2023-10-08T01:32:42;0.30;;;0.30;;
7080;SDS011;3582;51.506;11.948;2023-10-08T01:35:09;0.40;;;0.40;;
7080;SDS011;3582;51.506;11.948;2023-10-08T01:37:51;0.40;;;0.40;;
7080;SDS011;3582;51.506;11.948;2023-10-08T01:40:17;0.30;;;0.30;;
7080;SDS011;3582;51.506;11.948;2023-10-08T01:42:44;0.40;;;0.40;;
7080;SDS011;3582;51.506;11.948;2023-10-08T01:45:11;0.30;;;0.30;;
7080;SDS011;3582;51.506;11.948;2023-10-08T01:47:38;0.40;;;0.40;;
7080;SDS011;3582;51.506;11.948;2023-10-08T01:50:05;1.53;;;0.40;;
7080;SDS011;3582;51.506;11.948;2023-10-08T01:52:43;0.37;;;0.37;;
7080;SDS011;3582;51.506;11.948;2023-10-08T01:55:11;0.40;;;0.40;;
7080;SDS011;3582;51.506;11.948;2023-10-08T01:57:43;0.50;;;0.50;;
7080;SDS011;3582;51.506;11.948;2023-10-08T02:00:09;0.40;;;0.40;;
7080;SDS011;3582;51.506;11.948;2023-10-08T02:02:35;0.60;;;0.60;;
7080;SDS011;3582;51.506;11.948;2023-10-08T02:05:02;0.40;;;0.40;;
7080;SDS011;3582;51.506;11.948;2023-10-08T02:07:29;0.53;;;0.53;;
7080;SDS011;3582;51.506;11.948;2023-10-08T02:09:55;0.87;;;0.43;;
7080;SDS011;3582;51.506;11.948;2023-10-08T02:12:22;0.50;;;0.50;;
7080;SDS011;3582;51.506;11.948;2023-10-08T02:14:48;0.30;;;0.30;;
7080;SDS011;3582;51.506;11.948;2023-10-08T02:17:14;0.40;;;0.40;;
7080;SDS011;3582;51.506;11.948;2023-10-08T02:19:41;0.40;;;0.40;;
7080;SDS011;3582;51.506;11.948;2023-10-08T02:22:07;0.40;;;0.40;;
7080;SDS011;3582;51.506;11.948;2023-10-08T02:24:34;0.50;;;0.50;;
7080;SDS011;3582;51.506;11.948;2023-10-08T02:27:00;0.53;;;0.40;;
7080;SDS011;3582;51.506;11.948;2023-10-08T02:29:28;0.37;;;0.37;;
7080;SDS011;3582;51.506;11.948;2023-10-08T02:31:55;0.43;;;0.43;;
7080;SDS011;3582;51.506;11.948;2023-10-08T02:34:21;0.30;;;0.30;;
7080;SDS011;3582;51.506;11.948;2023-10-08T02:36:47;0.40;;;0.40;;
7080;SDS011;3582;51.506;11.948;2023-10-08T02:39:13;0.70;;;0.40;;
7080;SDS011;3582;51.506;11.948;2023-10-08T02:41:46;0.40;;;0.40;;
7080;SDS011;3582;51.506;11.948;2023-10-08T02:44:15;0.60;;;0.60;;
7080;SDS011;3582;51.506;11.948;2023-10-08T02:46:45;0.60;;;0.60;;
7080;SDS011;3582;51.506;11.948;2023-10-08T02:49:15;0.60;;;0.60;;
7080;SDS011;3582;51.506;11.948;2023-10-08T02:51:53;1.17;;;1.07;;
7080;SDS011;3582;51.506;11.948;2023-10-08T02:54:20;1.20;;;1.10;;
7080;SDS011;3582;51.506;11.948;2023-10-08T02:56:51;2.27;;;2.07;;
7080;SDS011;3582;51.506;11.948;2023-10-08T02:59:20;1.87;;;1.77;;
7080;SDS011;3582;51.506;11.948;2023-10-08T03:01:47;4.10;;;2.30;;
7080;SDS011;3582;51.506;11.948;2023-10-08T03:04:21;3.20;;;3.00;;
7080;SDS011;3582;51.506;11.948;2023-10-08T03:06:48;2.70;;;2.50;;
7080;SDS011;3582;51.506;11.948;2023-10-08T03:09:18;4.13;;;3.20;;
7080;SDS011;3582;51.506;11.948;2023-10-08T03:11:56;3.60;;;3.30;;
7080;SDS011;3582;51.506;11.948;2023-10-08T03:14:23;4.17;;;2.93;;
7080;SDS011;3582;51.506;11.948;2023-10-08T03:17:06;5.50;;;4.80;;
7080;SDS011;3582;51.506;11.948;2023-10-08T03:19:32;4.57;;;4.17;;
7080;SDS011;3582;51.506;11.948;2023-10-08T03:22:00;4.73;;;4.33;;
7080;SDS011;3582;51.506;11.948;2023-10-08T03:24:29;10.47;;;4.97;;
7080;SDS011;3582;51.506;11.948;2023-10-08T03:27:02;7.00;;;5.10;;
7080;SDS011;3582;51.506;11.948;2023-10-08T03:29:35;6.53;;;4.90;;
7080;SDS011;3582;51.506;11.948;2023-10-08T03:32:10;5.47;;;4.97;;
7080;SDS011;3582;51.506;11.948;2023-10-08T03:34:47;5.73;;;5.10;;
7080;SDS011;3582;51.506;11.948;2023-10-08T03:37:14;5.00;;;4.50;;
7080;SDS011;3582;51.506;11.948;2023-10-08T03:39:46;3.20;;;2.93;;
7080;SDS011;3582;51.506;11.948;2023-10-08T03:42:26;2.67;;;2.47;;
7080;SDS011;3582;51.506;11.948;2023-10-08T03:44:58;2.20;;;1.70;;
7080;SDS011;3582;51.506;11.948;2023-10-08T03:47:34;1.47;;;1.10;;
7080;SDS011;3582;51.506;11.948;2023-10-08T03:50:02;0.93;;;0.70;;
7080;SDS011;3582;51.506;11.948;2023-10-08T03:52:30;0.40;;;0.40;;
7080;SDS011;3582;51.506;11.948;2023-10-08T03:55:01;0.67;;;0.50;;
7080;SDS011;3582;51.506;11.948;2023-10-08T03:57:45;0.40;;;0.40;;
7080;SDS011;3582;51.506;11.948;2023-10-08T04:00:14;0.60;;;0.60;;
7080;SDS011;3582;51.506;11.948;2023-10-08T04:02:47;1.00;;;0.70;;
7080;SDS011;3582;51.506;11.948;2023-10-08T04:05:23;0.70;;;0.70;;
7080;SDS011;3582;51.506;11.948;2023-10-08T04:07:57;0.50;;;0.50;;
7080;SDS011;3582;51.506;11.948;2023-10-08T04:10:23;0.50;;;0.50;;
7080;SDS011;3582;51.506;11.948;2023-10-08T04:13:10;0.40;;;0.40;;
7080;SDS011;3582;51.506;11.948;2023-10-08T04:15:41;0.70;;;0.70;;
7080;SDS011;3582;51.506;11.948;2023-10-08T04:18:07;0.87;;;0.73;;
7080;SDS011;3582;51.506;11.948;2023-10-08T04:20:34;0.97;;;0.70;;
7080;SDS011;3582;51.506;11.948;2023-10-08T04:23:03;0.70;;;0.70;;
7080;SDS011;3582;51.506;11.948;2023-10-08T04:25:30;0.67;;;0.67;;
7080;SDS011;3582;51.506;11.948;2023-10-08T04:27:59;0.77;;;0.67;;
7080;SDS011;3582;51.506;11.948;2023-10-08T04:30:25;0.90;;;0.90;;
7080;SDS011;3582;51.506;11.948;2023-10-08T04:33:01;2.67;;;0.88;;
7080;SDS011;3582;51.506;11.948;2023-10-08T04:35:36;1.27;;;1.00;;
7080;SDS011;3582;51.506;11.948;2023-10-08T04:38:24;1.13;;;0.90;;
7080;SDS011;3582;51.506;11.948;2023-10-08T04:40:51;2.00;;;1.00;;
7080;SDS011;3582;51.506;11.948;2023-10-08T04:43:18;2.00;;;1.90;;
7080;SDS011;3582;51.506;11.948;2023-10-08T04:45:59;5.90;;;3.90;;
7080;SDS011;3582;51.506;11.948;2023-10-08T04:48:47;7.28;;;5.65;;
7080;SDS011;3582;51.506;11.948;2023-10-08T04:51:15;12.10;;;7.30;;
7080;SDS011;3582;51.506;11.948;2023-10-08T04:53:43;9.73;;;7.33;;
7080;SDS011;3582;51.506;11.948;2023-10-08T04:56:10;8.80;;;6.40;;
7080;SDS011;3582;51.506;11.948;2023-10-08T04:58:42;9.20;;;6.90;;
7080;SDS011;3582;51.506;11.948;2023-10-08T05:01:11;9.50;;;7.17;;
7080;SDS011;3582;51.506;11.948;2023-10-08T05:03:49;13.60;;;8.90;;
7080;SDS011;3582;51.506;11.948;2023-10-08T05:06:22;13.67;;;9.80;;
7080;SDS011;3582;51.506;11.948;2023-10-08T05:09:00;13.23;;;9.37;;
7080;SDS011;3582;51.506;11.948;2023-10-08T05:11:35;13.70;;;11.33;;
7080;SDS011;3582;51.506;11.948;2023-10-08T05:14:25;17.27;;;15.50;;
7080;SDS011;3582;51.506;11.948;2023-10-08T05:16:57;15.90;;;14.20;;
7080;SDS011;3582;51.506;11.948;2023-10-08T05:19:39;14.25;;;11.90;;
7080;SDS011;3582;51.506;11.948;2023-10-08T05:22:06;12.68;;;10.07;;
7080;SDS011;3582;51.506;11.948;2023-10-08T05:24:50;5.97;;;5.47;;
7080;SDS011;3582;51.506;11.948;2023-10-08T05:27:37;6.15;;;5.57;;
7080;SDS011;3582;51.506;11.948;2023-10-08T05:30:19;5.63;;;4.43;;
7080;SDS011;3582;51.506;11.948;2023-10-08T05:33:06;6.53;;;5.07;;
7080;SDS011;3582;51.506;11.948;2023-10-08T05:35:42;5.00;;;4.60;;
7080;SDS011;3582;51.506;11.948;2023-10-08T05:38:09;7.43;;;4.00;;
7080;SDS011;3582;51.506;11.948;2023-10-08T05:40:42;8.05;;;4.50;;
7080;SDS011;3582;51.506;11.948;2023-10-08T05:43:23;11.50;;;5.22;;
7080;SDS011;3582;51.506;11.948;2023-10-08T05:46:19;6.00;;;4.10;;
7080;SDS011;3582;51.506;11.948;2023-10-08T05:48:45;7.20;;;3.70;;
7080;SDS011;3582;51.506;11.948;2023-10-08T05:51:16;3.88;;;2.83;;
7080;SDS011;3582;51.506;11.948;2023-10-08T05:54:09;7.53;;;2.90;;
7080;SDS011;3582;51.506;11.948;2023-10-08T05:56:49;4.10;;;2.92;;
7080;SDS011;3582;51.506;11.948;2023-10-08T05:59:34;6.68;;;2.53;;
7080;SDS011;3582;51.506;11.948;2023-10-08T06:02:19;4.47;;;2.63;;
7080;SDS011;3582;51.506;11.948;2023-10-08T06:05:11;5.88;;;2.78;;
7080;SDS011;3582;51.506;11.948;2023-10-08T06:12:59;6.80;;;4.50;;
7080;SDS011;3582;51.506;11.948;2023-10-08T06:15:46;8.68;;;4.53;;
7080;SDS011;3582;51.506;11.948;2023-10-08T06:18:28;5.63;;;3.70;;
7080;SDS011;3582;51.506;11.948;2023-10-08T06:20:55;11.55;;;5.20;;
7080;SDS011;3582;51.506;11.948;2023-10-08T06:23:24;6.75;;;5.10;;
7080;SDS011;3582;51.506;11.948;2023-10-08T06:25:50;10.02;;;4.45;;
7080;SDS011;3582;51.506;11.948;2023-10-08T06:28:19;7.40;;;4.10;;
7080;SDS011;3582;51.506;11.948;2023-10-08T06:30:49;5.72;;;4.60;;
7080;SDS011;3582;51.506;11.948;2023-10-08T06:33:17;7.83;;;3.90;;
7080;SDS011;3582;51.506;11.948;2023-10-08T06:35:43;5.88;;;3.97;;
7080;SDS011;3582;51.506;11.948;2023-10-08T06:38:10;4.63;;;3.77;;
7080;SDS011;3582;51.506;11.948;2023-10-08T06:40:36;11.63;;;3.58;;
7080;SDS011;3582;51.506;11.948;2023-10-08T06:43:03;6.40;;;3.37;;
7080;SDS011;3582;51.506;11.948;2023-10-08T06:46:02;8.65;;;3.58;;
7080;SDS011;3582;51.506;11.948;2023-10-08T06:48:28;6.47;;;3.50;;
7080;SDS011;3582;51.506;11.948;2023-10-08T06:50:55;5.33;;;3.13;;
7080;SDS011;3582;51.506;11.948;2023-10-08T06:53:32;6.47;;;3.83;;
7080;SDS011;3582;51.506;11.948;2023-10-08T06:55:58;6.60;;;3.77;;
7080;SDS011;3582;51.506;11.948;2023-10-08T06:58:29;11.53;;;3.50;;
7080;SDS011;3582;51.506;11.948;2023-10-08T07:00:58;8.27;;;2.80;;
7080;SDS011;3582;51.506;11.948;2023-10-08T07:03:29;5.97;;;3.13;;
7080;SDS011;3582;51.506;11.948;2023-10-08T07:05:56;6.37;;;3.90;;
7080;SDS011;3582;51.506;11.948;2023-10-08T07:08:28;4.60;;;3.22;;
7080;SDS011;3582;51.506;11.948;2023-10-08T07:10:59;9.73;;;4.20;;
7080;SDS011;3582;51.506;11.948;2023-10-08T07:13:26;6.07;;;4.00;;
7080;SDS011;3582;51.506;11.948;2023-10-08T07:15:54;9.60;;;3.87;;
7080;SDS011;3582;51.506;11.948;2023-10-08T07:18:21;4.90;;;3.23;;
7080;SDS011;3582;51.506;11.948;2023-10-08T07:20:56;6.47;;;3.47;;
7080;SDS011;3582;51.506;11.948;2023-10-08T07:23:26;7.97;;;3.70;;
7080;SDS011;3582;51.506;11.948;2023-10-08T07:26:00;4.47;;;3.50;;
7080;SDS011;3582;51.506;11.948;2023-10-08T07:28:38;6.33;;;4.20;;
7080;SDS011;3582;51.506;11.948;2023-10-08T07:31:06;12.47;;;3.30;;
7080;SDS011;3582;51.506;11.948;2023-10-08T07:33:34;8.40;;;3.03;;
7080;SDS011;3582;51.506;11.948;2023-10-08T07:36:01;6.57;;;3.20;;
7080;SDS011;3582;51.506;11.948;2023-10-08T07:38:37;4.63;;;3.10;;
7080;SDS011;3582;51.506;11.948;2023-10-08T07:41:05;8.93;;;3.50;;
7080;SDS011;3582;51.506;11.948;2023-10-08T07:43:31;4.50;;;2.53;;
7080;SDS011;3582;51.506;11.948;2023-10-08T07:45:57;5.60;;;2.90;;
7080;SDS011;3582;51.506;11.948;2023-10-08T07:48:26;5.70;;;2.40;;
7080;SDS011;3582;51.506;11.948;2023-10-08T07:50:55;4.30;;;2.70;;
7080;SDS011;3582;51.506;11.948;2023-10-08T07:53:22;3.40;;;2.33;;
7080;SDS011;3582;51.506;11.948;2023-10-08T07:55:49;3.00;;;2.00;;
7080;SDS011;3582;51.506;11.948;2023-10-08T07:58:15;2.30;;;2.10;;
7080;SDS011;3582;51.506;11.948;2023-10-08T08:00:41;5.03;;;2.00;;
7080;SDS011;3582;51.506;11.948;2023-10-08T08:03:16;3.87;;;2.67;;
7080;SDS011;3582;51.506;11.948;2023-10-08T08:05:43;5.60;;;2.25;;
7080;SDS011;3582;51.506;11.948;2023-10-08T08:08:09;5.40;;;1.97;;
7080;SDS011;3582;51.506;11.948;2023-10-08T08:10:42;4.17;;;1.80;;
7080;SDS011;3582;51.506;11.948;2023-10-08T08:13:08;4.33;;;2.33;;
7080;SDS011;3582;51.506;11.948;2023-10-08T08:15:34;5.00;;;1.90;;
7080;SDS011;3582;51.506;11.948;2023-10-08T08:18:06;4.83;;;2.57;;
7080;SDS011;3582;51.506;11.948;2023-10-08T08:20:32;7.97;;;2.40;;
7080;SDS011;3582;51.506;11.948;2023-10-08T08:23:06;4.50;;;2.40;;
7080;SDS011;3582;51.506;11.948;2023-10-08T08:25:36;2.23;;;1.90;;
7080;SDS011;3582;51.506;11.948;2023-10-08T08:28:10;3.37;;;1.90;;
7080;SDS011;3582;51.506;11.948;2023-10-08T08:30:45;3.47;;;2.70;;
7080;SDS011;3582;51.506;11.948;2023-10-08T08:33:17;4.33;;;2.13;;
7080;SDS011;3582;51.506;11.948;2023-10-08T08:36:08;7.97;;;2.73;;
7080;SDS011;3582;51.506;11.948;2023-10-08T08:38:34;3.80;;;2.23;;
7080;SDS011;3582;51.506;11.948;2023-10-08T08:41:01;3.37;;;1.73;;
7080;SDS011;3582;51.506;11.948;2023-10-08T08:43:32;3.70;;;2.60;;
7080;SDS011;3582;51.506;11.948;2023-10-08T08:45:58;8.10;;;2.70;;
7080;SDS011;3582;51.506;11.948;2023-10-08T08:48:25;6.27;;;2.10;;
7080;SDS011;3582;51.506;11.948;2023-10-08T08:50:51;2.43;;;2.10;;
7080;SDS011;3582;51.506;11.948;2023-10-08T08:53:18;4.37;;;1.77;;
7080;SDS011;3582;51.506;11.948;2023-10-08T08:55:44;5.07;;;2.67;;
7080;SDS011;3582;51.506;11.948;2023-10-08T08:58:11;7.80;;;3.33;;
7080;SDS011;3582;51.506;11.948;2023-10-08T09:00:37;3.80;;;2.43;;
7080;SDS011;3582;51.506;11.948;2023-10-08T09:03:06;2.73;;;2.00;;
7080;SDS011;3582;51.506;11.948;2023-10-08T09:05:33;8.23;;;2.37;;
7080;SDS011;3582;51.506;11.948;2023-10-08T09:10:29;6.23;;;2.50;;
7080;SDS011;3582;51.506;11.948;2023-10-08T09:12:55;3.57;;;2.37;;
7080;SDS011;3582;51.506;11.948;2023-10-08T09:15:25;4.27;;;2.47;;
7080;SDS011;3582;51.506;11.948;2023-10-08T09:17:52;7.93;;;2.70;;
7080;SDS011;3582;51.506;11.948;2023-10-08T09:20:19;4.30;;;2.60;;
7080;SDS011;3582;51.506;11.948;2023-10-08T09:22:46;6.53;;;2.60;;
7080;SDS011;3582;51.506;11.948;2023-10-08T09:25:16;6.17;;;2.77;;
7080;SDS011;3582;51.506;11.948;2023-10-08T09:27:50;6.10;;;2.87;;
7080;SDS011;3582;51.506;11.948;2023-10-08T09:30:20;4.17;;;2.33;;
7080;SDS011;3582;51.506;11.948;2023-10-08T09:32:47;8.20;;;2.93;;
7080;SDS011;3582;51.506;11.948;2023-10-08T09:35:15;8.17;;;3.37;;
7080;SDS011;3582;51.506;11.948;2023-10-08T09:37:41;4.90;;;2.97;;
7080;SDS011;3582;51.506;11.948;2023-10-08T09:40:07;4.30;;;2.80;;
7080;SDS011;3582;51.506;11.948;2023-10-08T09:42:35;7.90;;;3.67;;
7080;SDS011;3582;51.506;11.948;2023-10-08T09:45:01;7.67;;;3.57;;
7080;SDS011;3582;51.506;11.948;2023-10-08T09:47:30;7.87;;;3.77;;
7080;SDS011;3582;51.506;11.948;2023-10-08T09:50:01;8.77;;;4.63;;
7080;SDS011;3582;51.506;11.948;2023-10-08T09:53:14;4.97;;;4.30;;
7080;SDS011;3582;51.506;11.948;2023-10-08T09:55:24;5.60;;;3.60;;
7080;SDS011;3582;51.506;11.948;2023-10-08T09:57:51;5.93;;;3.50;;
7080;SDS011;3582;51.506;11.948;2023-10-08T10:00:20;8.20;;;3.63;;
7080;SDS011;3582;51.506;11.948;2023-10-08T10:02:55;5.70;;;3.97;;
7080;SDS011;3582;51.506;11.948;2023-10-08T10:05:21;9.40;;;3.53;;
7080;SDS011;3582;51.506;11.948;2023-10-08T10:07:47;8.80;;;3.70;;
7080;SDS011;3582;51.506;11.948;2023-10-08T10:10:26;5.07;;;4.10;;
7080;SDS011;3582;51.506;11.948;2023-10-08T10:12:52;4.33;;;3.93;;
7080;SDS011;3582;51.506;11.948;2023-10-08T10:15:21;7.80;;;6.17;;
7080;SDS011;3582;51.506;11.948;2023-10-08T10:17:47;10.63;;;5.43;;
7080;SDS011;3582;51.506;11.948;2023-10-08T10:20:14;5.03;;;4.70;;
7080;SDS011;3582;51.506;11.948;2023-10-08T10:22:41;6.93;;;4.80;;
7080;SDS011;3582;51.506;11.948;2023-10-08T10:25:08;6.00;;;4.53;;
7080;SDS011;3582;51.506;11.948;2023-10-08T10:27:42;5.40;;;4.47;;
7080;SDS011;3582;51.506;11.948;2023-10-08T10:30:29;4.40;;;3.93;;
7080;SDS011;3582;51.506;11.948;2023-10-08T10:32:55;4.90;;;4.50;;
7080;SDS011;3582;51.506;11.948;2023-10-08T10:35:24;7.23;;;5.90;;
7080;SDS011;3582;51.506;11.948;2023-10-08T10:37:52;7.57;;;5.30;;
7080;SDS011;3582;51.506;11.948;2023-10-08T10:40:20;6.90;;;4.97;;
7080;SDS011;3582;51.506;11.948;2023-10-08T10:42:57;11.63;;;5.10;;
7080;SDS011;3582;51.506;11.948;2023-10-08T10:45:28;6.37;;;5.77;;
7080;SDS011;3582;51.506;11.948;2023-10-08T10:48:05;7.73;;;4.90;;
7080;SDS011;3582;51.506;11.948;2023-10-08T10:50:49;5.43;;;4.93;;
7080;SDS011;3582;51.506;11.948;2023-10-08T10:53:39;6.70;;;6.00;;
7080;SDS011;3582;51.506;11.948;2023-10-08T10:56:24;5.40;;;4.90;;
7080;SDS011;3582;51.506;11.948;2023-10-08T10:59:00;13.63;;;5.67;;
7080;SDS011;3582;51.506;11.948;2023-10-08T11:01:40;9.40;;;6.17;;
7080;SDS011;3582;51.506;11.948;2023-10-08T11:04:11;10.53;;;5.77;;
7080;SDS011;3582;51.506;11.948;2023-10-08T11:06:41;7.67;;;5.30;;
7080;SDS011;3582;51.506;11.948;2023-10-08T11:09:09;10.00;;;6.07;;
7080;SDS011;3582;51.506;11.948;2023-10-08T11:11:41;8.70;;;5.87;;
7080;SDS011;3582;51.506;11.948;2023-10-08T11:14:11;7.07;;;6.33;;
7080;SDS011;3582;51.506;11.948;2023-10-08T11:16:42;6.30;;;5.37;;
7080;SDS011;3582;51.506;11.948;2023-10-08T11:19:08;4.73;;;4.30;;
7080;SDS011;3582;51.506;11.948;2023-10-08T11:21:50;6.00;;;5.20;;
7080;SDS011;3582;51.506;11.948;2023-10-08T11:24:31;11.13;;;6.00;;
7080;SDS011;3582;51.506;11.948;2023-10-08T11:27:00;7.30;;;4.40;;
7080;SDS011;3582;51.506;11.948;2023-10-08T11:29:40;7.60;;;5.07;;
7080;SDS011;3582;51.506;11.948;2023-10-08T11:32:06;7.70;;;5.07;;
7080;SDS011;3582;51.506;11.948;2023-10-08T11:34:37;6.17;;;5.00;;
7080;SDS011;3582;51.506;11.948;2023-10-08T11:37:04;7.87;;;4.13;;
7080;SDS011;3582;51.506;11.948;2023-10-08T11:39:45;6.07;;;4.17;;
7080;SDS011;3582;51.506;11.948;2023-10-08T11:42:11;6.50;;;3.83;;
7080;SDS011;3582;51.506;11.948;2023-10-08T11:44:56;7.90;;;4.30;;
7080;SDS011;3582;51.506;11.948;2023-10-08T11:47:24;5.77;;;3.63;;
7080;SDS011;3582;51.506;11.948;2023-10-08T11:49:56;6.97;;;4.40;;
7080;SDS011;3582;51.506;11.948;2023-10-08T11:52:42;7.43;;;5.40;;
7080;SDS011;3582;51.506;11.948;2023-10-08T11:55:08;4.87;;;3.60;;
7080;SDS011;3582;51.506;11.948;2023-10-08T11:57:35;5.77;;;3.87;;
7080;SDS011;3582;51.506;11.948;2023-10-08T12:00:04;6.27;;;4.60;;
7080;SDS011;3582;51.506;11.948;2023-10-08T12:02:43;4.90;;;2.80;;
7080;SDS011;3582;51.506;11.948;2023-10-08T12:05:09;6.03;;;3.50;;
7080;SDS011;3582;51.506;11.948;2023-10-08T12:07:47;4.73;;;3.30;;
7080;SDS011;3582;51.506;11.948;2023-10-08T12:10:15;11.20;;;3.43;;
7080;SDS011;3582;51.506;11.948;2023-10-08T12:12:46;6.30;;;3.80;;
7080;SDS011;3582;51.506;11.948;2023-10-08T12:15:13;11.77;;;3.53;;
7080;SDS011;3582;51.506;11.948;2023-10-08T12:17:45;5.10;;;3.67;;
7080;SDS011;3582;51.506;11.948;2023-10-08T12:20:18;4.63;;;3.27;;
7080;SDS011;3582;51.506;11.948;2023-10-08T12:22:52;6.87;;;3.00;;
7080;SDS011;3582;51.506;11.948;2023-10-08T12:25:18;6.00;;;3.50;;
7080;SDS011;3582;51.506;11.948;2023-10-08T12:27:44;3.70;;;3.30;;
7080;SDS011;3582;51.506;11.948;2023-10-08T12:30:12;4.03;;;2.90;;
7080;SDS011;3582;51.506;11.948;2023-10-08T12:32:38;3.43;;;2.87;;
7080;SDS011;3582;51.506;11.948;2023-10-08T12:35:07;5.40;;;3.00;;
7080;SDS011;3582;51.506;11.948;2023-10-08T12:37:42;5.23;;;2.93;;
7080;SDS011;3582;51.506;11.948;2023-10-08T12:40:11;3.17;;;2.67;;
7080;SDS011;3582;51.506;11.948;2023-10-08T12:42:47;3.67;;;3.00;;
7080;SDS011;3582;51.506;11.948;2023-10-08T12:45:13;7.00;;;2.90;;
7080;SDS011;3582;51.506;11.948;2023-10-08T12:47:39;7.83;;;3.30;;
7080;SDS011;3582;51.506;11.948;2023-10-08T12:50:07;5.90;;;3.20;;
7080;SDS011;3582;51.506;11.948;2023-10-08T12:52:33;5.90;;;2.93;;
7080;SDS011;3582;51.506;11.948;2023-10-08T12:55:00;4.97;;;3.30;;
7080;SDS011;3582;51.506;11.948;2023-10-08T12:57:29;11.90;;;3.67;;
7080;SDS011;3582;51.506;11.948;2023-10-08T12:59:58;6.97;;;3.30;;
7080;SDS011;3582;51.506;11.948;2023-10-08T13:02:24;5.77;;;2.70;;
7080;SDS011;3582;51.506;11.948;2023-10-08T13:04:53;7.17;;;2.77;;
7080;SDS011;3582;51.506;11.948;2023-10-08T13:07:24;5.37;;;3.03;;
7080;SDS011;3582;51.506;11.948;2023-10-08T13:09:51;5.73;;;2.97;;
7080;SDS011;3582;51.506;11.948;2023-10-08T13:12:18;7.07;;;2.97;;
7080;SDS011;3582;51.506;11.948;2023-10-08T13:14:44;6.10;;;3.30;;
7080;SDS011;3582;51.506;11.948;2023-10-08T13:17:10;4.00;;;2.67;;
7080;SDS011;3582;51.506;11.948;2023-10-08T13:19:36;6.20;;;3.00;;
7080;SDS011;3582;51.506;11.948;2023-10-08T13:22:03;6.27;;;2.80;;
7080;SDS011;3582;51.506;11.948;2023-10-08T13:24:34;5.33;;;2.70;;
7080;SDS011;3582;51.506;11.948;2023-10-08T13:27:00;5.90;;;2.83;;
7080;SDS011;3582;51.506;11.948;2023-10-08T13:29:26;4.60;;;2.83;;
7080;SDS011;3582;51.506;11.948;2023-10-08T13:31:57;5.00;;;3.27;;
7080;SDS011;3582;51.506;11.948;2023-10-08T13:34:23;5.57;;;2.93;;
7080;SDS011;3582;51.506;11.948;2023-10-08T13:36:51;4.70;;;2.70;;
7080;SDS011;3582;51.506;11.948;2023-10-08T13:39:17;4.73;;;3.00;;
7080;SDS011;3582;51.506;11.948;2023-10-08T13:41:43;4.07;;;2.97;;
7080;SDS011;3582;51.506;11.948;2023-10-08T13:44:13;3.50;;;2.00;;
7080;SDS011;3582;51.506;11.948;2023-10-08T13:46:39;5.17;;;3.13;;
7080;SDS011;3582;51.506;11.948;2023-10-08T13:49:13;3.10;;;2.77;;
7080;SDS011;3582;51.506;11.948;2023-10-08T13:51:41;4.17;;;2.90;;
7080;SDS011;3582;51.506;11.948;2023-10-08T13:54:09;6.30;;;3.00;;
7080;SDS011;3582;51.506;11.948;2023-10-08T13:56:36;5.70;;;3.27;;
7080;SDS011;3582;51.506;11.948;2023-10-08T13:59:03;7.73;;;3.77;;
7080;SDS011;3582;51.506;11.948;2023-10-08T14:01:31;3.57;;;2.93;;
7080;SDS011;3582;51.506;11.948;2023-10-08T14:04:00;3.63;;;2.90;;
7080;SDS011;3582;51.506;11.948;2023-10-08T14:06:36;3.33;;;2.73;;
7080;SDS011;3582;51.506;11.948;2023-10-08T14:09:03;6.03;;;3.00;;
7080;SDS011;3582;51.506;11.948;2023-10-08T14:11:52;5.03;;;2.97;;
7080;SDS011;3582;51.506;11.948;2023-10-08T14:14:20;3.93;;;2.70;;
7080;SDS011;3582;51.506;11.948;2023-10-08T14:16:49;2.83;;;2.57;;
7080;SDS011;3582;51.506;11.948;2023-10-08T14:19:18;3.43;;;2.37;;
7080;SDS011;3582;51.506;11.948;2023-10-08T14:21:53;6.47;;;3.40;;
7080;SDS011;3582;51.506;11.948;2023-10-08T14:24:25;4.20;;;3.93;;
7080;SDS011;3582;51.506;11.948;2023-10-08T14:26:56;7.93;;;4.03;;
7080;SDS011;3582;51.506;11.948;2023-10-08T14:29:27;5.23;;;3.40;;
7080;SDS011;3582;51.506;11.948;2023-10-08T14:31:53;4.23;;;2.60;;
7080;SDS011;3582;51.506;11.948;2023-10-08T14:34:22;4.93;;;3.30;;
7080;SDS011;3582;51.506;11.948;2023-10-08T14:37:06;4.93;;;2.70;;
7080;SDS011;3582;51.506;11.948;2023-10-08T14:39:51;2.90;;;2.70;;
7080;SDS011;3582;51.506;11.948;2023-10-08T14:42:35;4.77;;;2.90;;
7080;SDS011;3582;51.506;11.948;2023-10-08T14:45:21;6.07;;;3.33;;
7080;SDS011;3582;51.506;11.948;2023-10-08T14:47:47;7.10;;;2.87;;
7080;SDS011;3582;51.506;11.948;2023-10-08T14:50:14;7.40;;;3.37;;
7080;SDS011;3582;51.506;11.948;2023-10-08T14:52:46;4.60;;;3.40;;
7080;SDS011;3582;51.506;11.948;2023-10-08T14:55:12;7.43;;;2.40;;
7080;SDS011;3582;51.506;11.948;2023-10-08T14:57:38;3.80;;;2.77;;
7080;SDS011;3582;51.506;11.948;2023-10-08T15:00:05;6.63;;;3.20;;
7080;SDS011;3582;51.506;11.948;2023-10-08T15:02:32;7.80;;;2.47;;
7080;SDS011;3582;51.506;11.948;2023-10-08T15:04:58;2.40;;;2.20;;
7080;SDS011;3582;51.506;11.948;2023-10-08T15:07:26;3.67;;;2.20;;
7080;SDS011;3582;51.506;11.948;2023-10-08T15:09:52;3.90;;;2.57;;
7080;SDS011;3582;51.506;11.948;2023-10-08T15:12:22;5.60;;;3.03;;
7080;SDS011;3582;51.506;11.948;2023-10-08T15:14:50;4.87;;;2.63;;
7080;SDS011;3582;51.506;11.948;2023-10-08T15:17:16;4.30;;;3.10;;
7080;SDS011;3582;51.506;11.948;2023-10-08T15:19:42;3.77;;;2.80;;
7080;SDS011;3582;51.506;11.948;2023-10-08T15:22:08;5.73;;;2.77;;
7080;SDS011;3582;51.506;11.948;2023-10-08T15:24:34;6.53;;;3.17;;
7080;SDS011;3582;51.506;11.948;2023-10-08T15:27:01;3.47;;;2.57;;
7080;SDS011;3582;51.506;11.948;2023-10-08T15:29:29;5.17;;;2.80;;
7080;SDS011;3582;51.506;11.948;2023-10-08T15:31:56;3.80;;;2.40;;